Time;durP1;ratioP1;P1;durP2;ratioP2;P2;SDS_P1;SDS_P2;PMS_P1;PMS_P2;Temp;Humidity;BMP_temperature;BMP_pressure;BME280_temperature;BME280_humidity;BME280_pressure;Samples;Min_cycle;Max_cycle;Signal;HPM_P1;HPM_P2
2022/04/28 00:00:10;;;;;;;8.20;5.83;;;8.20;99.90;;;;;;5015336;28;20451;-77
2022/04/28 00:02:38;;;;;;;8.80;5.90;;;7.90;99.90;;;;;;5014570;28;20469;-79
2022/04/28 00:05:06;;;;;;;9.20;5.13;;;8.30;99.90;;;;;;5015870;28;20515;-79
2022/04/28 00:07:33;;;;;;;10.47;6.67;;;;;;;;;;5015244;28;21057;-80
2022/04/28 00:10:00;;;;;;;10.57;7.10;;;;;;;;;;5014680;28;20949;-79
2022/04/28 00:12:27;;;;;;;10.07;5.70;;;8.00;99.90;;;;;;5015963;28;20454;-78
2022/04/28 00:14:55;;;;;;;9.10;5.90;;;;;;;;;;5015328;28;20536;-78
2022/04/28 00:17:23;;;;;;;10.40;5.60;;;9.70;99.90;;;;;;5014820;28;20479;-79
2022/04/28 00:19:50;;;;;;;11.47;5.80;;;;;;;;;;5014407;28;20455;-79
2022/04/28 00:22:17;;;;;;;10.60;6.60;;;7.90;99.90;;;;;;5016110;28;20455;-78
2022/04/28 00:24:44;;;;;;;7.17;5.30;;;8.90;99.90;;;;;;5016310;28;20508;-79
2022/04/28 00:27:11;;;;;;;9.30;6.20;;;;;;;;;;5015487;28;20885;-78
2022/04/28 00:29:38;;;;;;;12.10;6.43;;;7.90;99.90;;;;;;5016729;28;20454;-79
2022/04/28 00:32:05;;;;;;;9.23;6.40;;;7.90;99.90;;;;;;5019236;28;20453;-79
2022/04/28 00:34:33;;;;;;;10.07;5.57;;;7.90;99.90;;;;;;5018353;28;20451;-78
2022/04/28 00:37:00;;;;;;;10.80;6.47;;;8.40;99.90;;;;;;5019111;28;20469;-79
2022/04/28 00:39:28;;;;;;;13.60;7.10;;;;;;;;;;5018238;28;20509;-76
2022/04/28 00:41:55;;;;;;;12.10;6.80;;;;;;;;;;5018752;28;20453;-78
2022/04/28 00:44:22;;;;;;;10.67;6.63;;;7.80;99.90;;;;;;5018751;28;20454;-78
2022/04/28 00:46:49;;;;;;;10.70;6.73;;;7.60;99.90;;;;;;5018858;28;20482;-79
2022/04/28 00:52:02;;;;;;;8.33;5.80;;;8.00;99.90;;;;;;5018310;28;20445;-79
2022/04/28 00:54:30;;;;;;;10.67;6.67;;;;;;;;;;5018095;28;20461;-79
2022/04/28 00:56:59;;;;;;;12.90;7.27;;;7.90;99.90;;;;;;5017204;28;20483;-78
2022/04/28 00:59:29;;;;;;;11.37;6.97;;;7.90;99.90;;;;;;5017688;28;21021;-77
2022/04/28 01:01:56;;;;;;;10.13;6.80;;;;;;;;;;5016156;28;20465;-78
2022/04/28 01:04:23;;;;;;;11.53;6.90;;;;;;;;;;5017696;28;20841;-78
2022/04/28 01:06:52;;;;;;;15.83;7.37;;;;;;;;;;5017066;28;20490;-78
2022/04/28 01:09:20;;;;;;;11.90;6.67;;;8.20;99.90;;;;;;5017575;28;20827;-78
2022/04/28 01:11:47;;;;;;;12.70;6.83;;;7.80;99.90;;;;;;5017303;28;20446;-78
2022/04/28 01:14:13;;;;;;;11.73;7.13;;;7.80;99.90;;;;;;5017666;28;20459;-79
2022/04/28 01:16:40;;;;;;;11.90;6.93;;;8.30;99.90;;;;;;5016739;28;20485;-79
2022/04/28 01:19:07;;;;;;;11.80;7.70;;;7.60;99.90;;;;;;5017842;28;20487;-78
2022/04/28 01:21:35;;;;;;;11.87;7.40;;;8.00;99.90;;;;;;5017631;28;20453;-79
2022/04/28 01:24:03;;;;;;;14.63;7.70;;;7.50;99.90;;;;;;5017734;28;20451;-77
2022/04/28 01:26:30;;;;;;;14.37;6.90;;;7.60;99.90;;;;;;5016691;28;20474;-77
2022/04/28 01:28:57;;;;;;;12.13;7.37;;;;;;;;;;5017358;28;20452;-77
2022/04/28 01:31:24;;;;;;;12.47;8.20;;;7.70;99.90;;;;;;5017269;28;20461;-78
2022/04/28 01:33:51;;;;;;;10.23;7.40;;;7.70;99.90;;;;;;5016529;28;20459;-78
2022/04/28 01:36:18;;;;;;;13.00;8.03;;;7.70;99.90;;;;;;5017205;28;20481;-79
2022/04/28 01:38:46;;;;;;;11.60;7.90;;;7.00;99.90;;;;;;5016546;28;20511;-79
2022/04/28 01:41:12;;;;;;;10.53;7.10;;;7.50;99.90;;;;;;5017208;28;20502;-77
2022/04/28 01:43:39;;;;;;;13.00;7.43;;;7.50;99.90;;;;;;5016768;28;20471;-78
2022/04/28 01:46:07;;;;;;;11.33;6.10;;;7.30;99.90;;;;;;5016908;28;20823;-78
2022/04/28 01:48:33;;;;;;;12.27;7.97;;;7.20;99.90;;;;;;5016505;28;20545;-80
2022/04/28 01:56:30;;;;;;;12.50;8.07;;;7.30;99.90;;;;;;5016899;28;20451;-78
2022/04/28 01:58:57;;;;;;;13.90;7.87;;;7.20;99.90;;;;;;5016139;28;20458;-78
2022/04/28 02:01:24;;;;;;;12.13;7.60;;;7.40;99.90;;;;;;5015323;28;20457;-78
2022/04/28 02:03:51;;;;;;;12.73;7.30;;;7.00;99.90;;;;;;5016290;28;20812;-78
2022/04/28 02:06:18;;;;;;;11.83;7.70;;;;;;;;;;5016592;28;20484;-79
2022/04/28 02:08:46;;;;;;;11.07;8.00;;;7.10;99.90;;;;;;5015722;28;20509;-79
2022/04/28 02:11:13;;;;;;;14.17;8.13;;;6.90;99.90;;;;;;5015960;28;20995;-79
2022/04/28 02:13:40;;;;;;;13.60;8.00;;;6.80;99.90;;;;;;5016871;28;20517;-78
2022/04/28 02:16:07;;;;;;;12.30;8.33;;;7.20;99.90;;;;;;5016405;28;20547;-77
2022/04/28 02:18:34;;;;;;;13.90;9.80;;;7.10;99.90;;;;;;5020174;28;20532;-79
2022/04/28 02:21:01;;;;;;;12.33;7.00;;;;;;;;;;5016033;28;20449;-78
2022/04/28 02:23:28;;;;;;;11.27;7.30;;;6.60;99.90;;;;;;5016049;28;20536;-79
2022/04/28 02:25:56;;;;;;;17.20;7.67;;;6.90;99.90;;;;;;5016489;28;20474;-79
2022/04/28 02:28:23;;;;;;;15.40;7.47;;;6.90;99.90;;;;;;5016619;28;20492;-79
2022/04/28 02:30:50;;;;;;;14.07;8.20;;;6.90;99.90;;;;;;5016481;28;20489;-78
2022/04/28 02:33:18;;;;;;;11.50;7.57;;;7.00;99.90;;;;;;5016385;28;21061;-78
2022/04/28 02:35:45;;;;;;;12.33;7.90;;;6.90;99.90;;;;;;5017123;28;20523;-77
2022/04/28 02:38:12;;;;;;;13.90;7.87;;;7.00;99.90;;;;;;5016111;28;20457;-78
2022/04/28 02:40:39;;;;;;;13.77;7.87;;;6.80;99.90;;;;;;5016038;28;20460;-77
2022/04/28 02:43:07;;;;;;;15.30;9.13;;;6.70;99.90;;;;;;5015105;28;20524;-77
2022/04/28 02:45:34;;;;;;;26.17;9.97;;;;;;;;;;5016184;28;20891;-77
2022/04/28 02:48:01;;;;;;;12.10;8.87;;;6.80;99.90;;;;;;5015132;28;20478;-79
2022/04/28 02:50:28;;;;;;;11.20;8.07;;;6.70;99.90;;;;;;5015590;28;20871;-79
2022/04/28 02:52:55;;;;;;;13.03;8.73;;;6.40;99.90;;;;;;5014818;28;20459;-78
2022/04/28 02:55:22;;;;;;;12.77;8.20;;;6.90;99.90;;;;;;5016108;28;20453;-79
2022/04/28 02:57:49;;;;;;;13.10;8.00;;;;;;;;;;5015582;28;20453;-79
2022/04/28 03:00:17;;;;;;;11.00;7.77;;;6.60;99.90;;;;;;5015126;28;20457;-79
2022/04/28 03:02:44;;;;;;;18.63;10.10;;;;;;;;;;5015092;28;20456;-79
2022/04/28 03:05:11;;;;;;;13.00;8.63;;;7.20;99.90;;;;;;5015741;28;20453;-78
2022/04/28 03:10:50;;;;;;;18.10;9.63;;;6.30;99.90;;;;;;5015498;28;20437;-79
2022/04/28 03:13:18;;;;;;;14.23;7.70;;;6.30;99.90;;;;;;5015357;28;20469;-79
2022/04/28 03:18:16;;;;;;;15.57;7.97;;;6.30;99.90;;;;;;5123278;22;20491;-82
2022/04/28 03:20:43;;;;;;;13.53;8.17;;;6.30;99.90;;;;;;5058067;28;20976;-82
2022/04/28 03:23:11;;;;;;;18.50;9.90;;;;;;;;;;5057729;28;20849;-83
2022/04/28 03:25:38;;;;;;;17.90;8.80;;;6.10;99.90;;;;;;5057901;28;20978;-82
2022/04/28 03:28:06;;;;;;;17.10;9.10;;;6.10;99.90;;;;;;5058708;28;20499;-82
2022/04/28 03:30:33;;;;;;;19.97;10.50;;;6.40;99.90;;;;;;5068204;28;20483;-80
2022/04/28 03:33:00;;;;;;;11.47;7.73;;;;;;;;;;5063075;28;20447;-79
2022/04/28 03:35:28;;;;;;;16.63;8.97;;;6.20;99.90;;;;;;5057191;28;20467;-80
2022/04/28 03:37:58;;;;;;;15.00;9.47;;;6.30;99.90;;;;;;5056782;28;20476;-80
2022/04/28 03:40:24;;;;;;;15.00;8.37;;;6.10;99.90;;;;;;5056727;28;21015;-80
2022/04/28 03:42:52;;;;;;;21.63;8.63;;;;;;;;;;5056191;28;20454;-80
2022/04/28 03:45:19;;;;;;;14.60;8.50;;;;;;;;;;5055964;28;20434;-82
2022/04/28 03:47:46;;;;;;;26.60;10.43;;;;;;;;;;5054589;28;20479;-82
2022/04/28 03:50:13;;;;;;;16.60;8.80;;;6.00;99.90;;;;;;5057189;28;20830;-80
2022/04/28 03:52:42;;;;;;;20.77;9.93;;;6.00;99.90;;;;;;5056253;28;21006;-80
2022/04/28 03:55:09;;;;;;;13.83;10.13;;;6.10;99.90;;;;;;5055302;28;20459;-80
2022/04/28 03:57:37;;;;;;;18.03;10.13;;;6.10;99.90;;;;;;5054533;28;20471;-80
2022/04/28 04:00:05;;;;;;;15.77;9.23;;;5.90;99.90;;;;;;5054557;28;20453;-80
2022/04/28 04:02:32;;;;;;;16.70;9.67;;;5.80;99.90;;;;;;5054766;28;20471;-80
2022/04/28 04:04:59;;;;;;;14.23;9.17;;;6.00;99.90;;;;;;5058634;28;20457;-80
2022/04/28 04:07:30;;;;;;;17.00;10.33;;;5.90;99.90;;;;;;5058277;28;20892;-82
2022/04/28 04:09:58;;;;;;;14.53;9.10;;;6.00;99.90;;;;;;5058554;28;20473;-81
2022/04/28 04:12:25;;;;;;;14.40;9.80;;;;;;;;;;5060860;28;20454;-80
2022/04/28 04:14:52;;;;;;;17.20;9.40;;;5.80;99.90;;;;;;5060068;28;20962;-82
2022/04/28 04:17:19;;;;;;;17.27;10.20;;;5.80;99.90;;;;;;5060670;28;20513;-80
2022/04/28 04:19:46;;;;;;;16.70;10.07;;;5.70;99.90;;;;;;5058810;28;20467;-81
2022/04/28 04:22:13;;;;;;;17.43;9.03;;;5.50;99.90;;;;;;5060916;28;20519;-81
2022/04/28 04:24:40;;;;;;;14.50;8.97;;;5.60;99.90;;;;;;5058952;28;20457;-79
2022/04/28 04:27:09;;;;;;;15.40;9.23;;;5.80;99.90;;;;;;5057383;28;21008;-79
2022/04/28 04:29:36;;;;;;;17.20;9.50;;;5.70;99.90;;;;;;5057449;28;20516;-80
2022/04/28 04:32:18;;;;;;;16.40;9.80;;;5.50;99.90;;;;;;5057680;28;20473;-82
2022/04/28 04:34:45;;;;;;;20.07;10.30;;;5.50;99.90;;;;;;5058554;28;20443;-79
2022/04/28 04:37:12;;;;;;;14.50;9.93;;;5.80;99.90;;;;;;5059094;28;20533;-79
2022/04/28 04:39:40;;;;;;;22.27;12.50;;;5.60;99.90;;;;;;5059500;28;20458;-80
2022/04/28 04:42:09;;;;;;;21.60;11.17;;;6.40;99.90;;;;;;5058989;28;21041;-80
2022/04/28 04:44:36;;;;;;;19.03;12.03;;;5.60;99.90;;;;;;5060677;28;20458;-81
2022/04/28 04:47:03;;;;;;;17.27;11.20;;;5.50;99.90;;;;;;5059149;28;20479;-80
2022/04/28 04:49:30;;;;;;;20.90;10.70;;;5.80;99.90;;;;;;5058868;28;21031;-82
2022/04/28 04:51:57;;;;;;;20.83;12.10;;;;;;;;;;5058357;28;20963;-81
2022/04/28 04:54:24;;;;;;;17.60;11.50;;;5.90;99.90;;;;;;5059801;28;20462;-84
2022/04/28 04:56:50;;;;;;;43.17;28.43;;;5.90;99.90;;;;;;5060328;28;20484;-83
2022/04/28 04:59:19;;;;;;;20.57;11.83;;;5.90;99.90;;;;;;5059317;28;20456;-83
2022/04/28 05:01:45;;;;;;;22.90;20.47;;;6.00;99.90;;;;;;5059639;28;20968;-83
2022/04/28 05:04:12;;;;;;;80.47;61.23;;;6.80;99.90;;;;;;5059766;28;20848;-84
2022/04/28 05:06:39;;;;;;;105.57;95.67;;;;;;;;;;5059319;28;20482;-82
2022/04/28 05:09:06;;;;;;;374.33;331.57;;;;;;;;;;5058877;28;20486;-82
2022/04/28 05:11:33;;;;;;;159.03;143.93;;;;;;;;;;5059646;28;20425;-84
2022/04/28 05:14:00;;;;;;;265.47;82.07;;;;;;;;;;5059484;28;20526;-84
2022/04/28 05:16:29;;;;;;;42.93;20.83;;;6.40;99.90;;;;;;5059444;28;20916;-82
2022/04/28 05:18:55;;;;;;;55.07;40.40;;;6.40;99.90;;;;;;5056791;28;20534;-84
2022/04/28 05:21:22;;;;;;;25.20;12.77;;;;;;;;;;5078494;28;20466;-82
2022/04/28 05:23:49;;;;;;;22.73;13.00;;;6.40;99.90;;;;;;5076812;28;20459;-83
2022/04/28 05:26:16;;;;;;;20.77;12.00;;;6.50;99.90;;;;;;5053764;28;20478;-81
2022/04/28 05:28:45;;;;;;;26.07;15.27;;;6.60;99.90;;;;;;5064628;28;20598;-83
2022/04/28 05:31:21;;;;;;;21.70;14.27;;;;;;;;;;5070374;28;20478;-84
2022/04/28 05:33:50;;;;;;;21.77;14.90;;;;;;;;;;5069138;28;20456;-82
2022/04/28 05:36:17;;;;;;;28.83;17.60;;;6.80;99.90;;;;;;5069898;28;20509;-82
2022/04/28 05:38:44;;;;;;;27.20;14.53;;;;;;;;;;5068754;28;20523;-82
2022/04/28 05:41:11;;;;;;;21.63;12.37;;;;;;;;;;5056430;28;20535;-86
2022/04/28 05:46:32;;;;;;;22.10;11.40;;;7.30;99.90;;;;;;5049102;28;20475;-82
2022/04/28 05:49:00;;;;;;;15.67;9.90;;;6.80;99.90;;;;;;5050593;28;20641;-85
2022/04/28 05:51:29;;;;;;;19.77;11.10;;;7.30;99.90;;;;;;5056595;28;20508;-87
2022/04/28 05:53:57;;;;;;;16.93;10.70;;;7.40;99.90;;;;;;5056092;28;20453;-85
2022/04/28 05:56:24;;;;;;;19.13;12.27;;;7.20;99.90;;;;;;5055765;28;20472;-85
2022/04/28 05:58:50;;;;;;;19.47;10.83;;;7.30;99.90;;;;;;5055685;28;20521;-86
2022/04/28 06:01:17;;;;;;;21.00;11.83;;;7.50;99.90;;;;;;5052963;28;20451;-85
2022/04/28 06:03:44;;;;;;;18.97;11.50;;;6.80;99.90;;;;;;5052524;28;20475;-85
2022/04/28 06:06:12;;;;;;;19.37;10.90;;;7.60;99.90;;;;;;5051956;28;20495;-85
2022/04/28 06:08:39;;;;;;;24.20;13.90;;;;;;;;;;5050311;28;20481;-86
2022/04/28 06:11:06;;;;;;;19.80;12.47;;;;;;;;;;5058115;28;21204;-87
2022/04/28 06:13:34;;;;;;;21.77;13.40;;;;;;;;;;5055453;28;20456;-85
2022/04/28 06:16:01;;;;;;;26.47;12.83;;;7.70;99.90;;;;;;5059439;28;20444;-87
2022/04/28 06:18:31;;;;;;;24.03;13.20;;;7.80;99.90;;;;;;5058590;28;20536;-88
2022/04/28 06:20:59;;;;;;;23.47;13.30;;;;;;;;;;5052834;28;20536;-87
2022/04/28 06:23:27;;;;;;;15.63;11.07;;;8.00;99.90;;;;;;5053924;28;20487;-86
2022/04/28 06:25:54;;;;;;;21.47;11.00;;;8.10;99.90;;;;;;5055277;28;20487;-86
2022/04/28 06:28:21;;;;;;;14.33;9.93;;;;;;;;;;5057171;28;20484;-86
2022/04/28 06:30:48;;;;;;;24.83;14.60;;;8.20;99.90;;;;;;5053034;28;20512;-86
2022/04/28 06:33:15;;;;;;;20.20;11.53;;;;;;;;;;5047992;28;20493;-85
2022/04/28 06:35:42;;;;;;;22.67;13.13;;;;;;;;;;5052163;28;20461;-85
2022/04/28 06:38:09;;;;;;;20.27;14.10;;;;;;;;;;5052440;28;20559;-86
2022/04/28 06:40:37;;;;;;;21.53;12.60;;;8.40;99.90;;;;;;5052260;28;20470;-85
2022/04/28 06:43:04;;;;;;;27.37;15.03;;;;;;;;;;5053333;28;20453;-86
2022/04/28 06:45:31;;;;;;;18.60;9.97;;;;;;;;;;5056542;28;20982;-86
2022/04/28 06:47:58;;;;;;;17.33;11.27;;;8.70;99.90;;;;;;5056653;28;20463;-87
2022/04/28 06:50:28;;;;;;;23.40;12.47;;;8.70;99.90;;;;;;5053097;28;20604;-86
2022/04/28 06:52:54;;;;;;;21.00;10.73;;;9.00;99.90;;;;;;5052541;28;20894;-82
2022/04/28 06:55:21;;;;;;;28.13;12.20;;;;;;;;;;5046403;28;20469;-82
2022/04/28 06:57:50;;;;;;;18.00;11.40;;;8.80;99.90;;;;;;5052373;28;20943;-83
2022/04/28 07:00:17;;;;;;;23.30;12.30;;;8.30;99.90;;;;;;5052207;28;20495;-84
2022/04/28 07:02:47;;;;;;;24.50;13.10;;;8.60;99.90;;;;;;5053159;28;20453;-83
2022/04/28 07:05:13;;;;;;;20.60;12.03;;;9.00;99.90;;;;;;5053520;28;20972;-83
2022/04/28 07:07:43;;;;;;;23.57;12.63;;;;;;;;;;5049088;28;20550;-85
2022/04/28 07:10:12;;;;;;;18.87;11.93;;;9.20;99.90;;;;;;5051955;28;20488;-84
2022/04/28 07:12:41;;;;;;;23.00;11.57;;;9.40;99.90;;;;;;5053842;28;20485;-84
2022/04/28 07:15:10;;;;;;;18.43;10.43;;;9.40;99.90;;;;;;5055596;28;20462;-82
2022/04/28 07:17:37;;;;;;;20.67;11.17;;;9.50;99.90;;;;;;5046360;28;20494;-84
2022/04/28 07:20:04;;;;;;;24.83;10.50;;;9.90;99.90;;;;;;5048774;28;20456;-84
2022/04/28 07:22:31;;;;;;;19.60;11.10;;;10.50;99.90;;;;;;5052167;28;20509;-86
2022/04/28 07:24:58;;;;;;;18.07;10.50;;;;;;;;;;5067820;28;20498;-83
2022/04/28 07:27:26;;;;;;;17.40;10.83;;;;;;;;;;5055559;28;20486;-85
2022/04/28 07:29:52;;;;;;;20.33;9.63;;;9.70;99.90;;;;;;5055796;28;20488;-85
2022/04/28 07:32:20;;;;;;;17.53;12.27;;;10.20;99.90;;;;;;5060342;28;20454;-84
2022/04/28 07:34:48;;;;;;;18.47;10.97;;;;;;;;;;5057793;28;20455;-85
2022/04/28 07:37:15;;;;;;;25.50;11.73;;;;;;;;;;5060707;28;20480;-85
2022/04/28 07:39:42;;;;;;;15.63;9.43;;;;;;;;;;5065374;28;20473;-85
2022/04/28 07:42:09;;;;;;;21.23;10.53;;;;;;;;;;5063464;28;20458;-86
2022/04/28 07:44:36;;;;;;;14.30;9.10;;;;;;;;;;5064910;28;20457;-85
2022/04/28 07:47:03;;;;;;;17.30;10.47;;;11.80;99.90;;;;;;5065956;28;20627;-86
2022/04/28 07:49:32;;;;;;;14.67;8.60;;;11.70;99.90;;;;;;5066647;28;20497;-85
2022/04/28 07:51:59;;;;;;;15.23;8.93;;;11.80;99.90;;;;;;5067489;28;20526;-85
2022/04/28 07:54:26;;;;;;;19.13;10.00;;;;;;;;;;5077082;28;20486;-83
2022/04/28 07:56:53;;;;;;;18.17;10.37;;;;;;;;;;5064102;28;20547;-85
2022/04/28 07:59:20;;;;;;;17.70;9.40;;;;;;;;;;5060767;28;20523;-83
2022/04/28 08:01:48;;;;;;;16.77;10.07;;;;;;;;;;5065681;28;20494;-85
2022/04/28 08:04:15;;;;;;;16.07;9.70;;;12.30;99.90;;;;;;5063616;28;20536;-84
2022/04/28 08:06:43;;;;;;;17.43;9.03;;;13.10;99.90;;;;;;5060528;28;20494;-84
2022/04/28 08:09:10;;;;;;;13.97;9.10;;;;;;;;;;5059306;28;20515;-83
2022/04/28 08:11:39;;;;;;;15.60;10.30;;;;;;;;;;5065540;28;20469;-81
2022/04/28 08:14:06;;;;;;;18.87;16.60;;;;;;;;;;5072686;28;20540;-84
2022/04/28 08:16:33;;;;;;;15.60;11.67;;;;;;;;;;5068160;28;21015;-81
2022/04/28 08:19:02;;;;;;;17.93;10.80;;;;;;;;;;5067676;28;21001;-81
2022/04/28 08:21:29;;;;;;;11.70;8.60;;;;;;;;;;5064035;28;21086;-86
2022/04/28 08:23:58;;;;;;;15.87;8.60;;;20.00;99.90;;;;;;5060112;28;20451;-82
2022/04/28 08:26:25;;;;;;;19.07;9.40;;;;;;;;;;5063969;28;20469;-83
2022/04/28 08:28:52;;;;;;;10.83;8.93;;;;;;;;;;5061224;28;20544;-82
2022/04/28 08:31:19;;;;;;;12.43;9.33;;;22.70;99.90;;;;;;5063856;28;20451;-81
2022/04/28 08:33:45;;;;;;;9.20;7.10;;;22.50;99.90;;;;;;5064066;28;20523;-80
2022/04/28 08:36:13;;;;;;;7.33;4.23;;;22.80;99.90;;;;;;5069175;28;20506;-81
2022/04/28 08:38:40;;;;;;;8.60;5.00;;;23.60;99.90;;;;;;5069105;28;20448;-82
2022/04/28 08:41:10;;;;;;;61.03;8.23;;;24.10;99.90;;;;;;5070576;28;20444;-80
2022/04/28 08:43:38;;;;;;;9.17;8.17;;;24.70;99.90;;;;;;5070476;28;20519;-80
2022/04/28 08:48:48;;;;;;;10.03;7.93;;;25.50;94.40;;;;;;5069109;28;20455;-81
2022/04/28 08:51:15;;;;;;;9.57;7.83;;;26.30;89.20;;;;;;5072112;28;20451;-81
2022/04/28 08:53:43;;;;;;;10.70;9.57;;;26.40;87.20;;;;;;5072759;28;20429;-82
2022/04/28 08:56:11;;;;;;;12.77;10.33;;;26.70;85.00;;;;;;5072688;28;20515;-81
2022/04/28 08:58:39;;;;;;;13.53;9.67;;;26.90;84.90;;;;;;5071806;28;20452;-82
2022/04/28 09:03:46;;;;;;;11.67;9.80;;;27.50;75.10;;;;;;4990654;28;20459;-80
2022/04/28 09:06:20;;;;;;;15.70;10.93;;;28.30;73.90;;;;;;5018382;28;20476;-81
2022/04/28 09:08:51;;;;;;;9.20;8.20;;;26.80;72.90;;;;;;5071738;28;20440;-83
2022/04/28 09:11:21;;;;;;;11.10;9.53;;;27.50;74.00;;;;;;5062650;28;20436;-82
2022/04/28 09:16:35;;;;;;;15.40;12.57;;;27.80;68.40;;;;;;5047462;28;20666;-83
2022/04/28 09:19:02;;;;;;;16.43;12.57;;;27.60;68.80;;;;;;5047472;28;20975;-82
2022/04/28 09:21:32;;;;;;;13.27;11.80;;;27.70;70.60;;;;;;5052287;28;20455;-84
2022/04/28 09:24:02;;;;;;;14.83;11.57;;;27.90;65.80;;;;;;5044740;28;20441;-84
2022/04/28 09:26:32;;;;;;;14.80;11.73;;;27.30;66.40;;;;;;5038775;28;20482;-82
2022/04/28 09:29:02;;;;;;;16.83;11.60;;;26.70;62.60;;;;;;5051881;28;20471;-85
2022/04/28 09:31:30;;;;;;;13.60;10.70;;;27.10;62.10;;;;;;5058279;28;20538;-83
2022/04/28 09:34:05;;;;;;;11.70;9.10;;;27.50;61.90;;;;;;5059708;28;20470;-82
2022/04/28 09:36:32;;;;;;;12.97;10.27;;;28.00;64.40;;;;;;5058599;28;20539;-84
2022/04/28 09:38:59;;;;;;;15.03;10.37;;;28.00;59.10;;;;;;5096197;22;20578;-83
2022/04/28 09:44:12;;;;;;;10.90;8.50;;;28.50;61.40;;;;;;5073084;28;20458;-83
2022/04/28 09:46:43;;;;;;;13.40;10.60;;;28.90;58.40;;;;;;5070946;28;20551;-84
2022/04/28 09:49:11;;;;;;;12.83;10.03;;;30.10;57.50;;;;;;5069852;28;20480;-83
2022/04/28 09:51:39;;;;;;;11.00;9.77;;;31.10;58.00;;;;;;5062925;28;20537;-83
2022/04/28 09:54:09;;;;;;;10.80;9.67;;;30.40;57.70;;;;;;5069085;28;20507;-85
2022/04/28 09:56:37;;;;;;;11.07;8.97;;;30.00;56.90;;;;;;5048935;28;20977;-85
2022/04/28 09:59:05;;;;;;;8.60;6.90;;;31.10;56.40;;;;;;5049091;28;20463;-84
2022/04/28 10:01:34;;;;;;;11.57;10.00;;;31.60;55.50;;;;;;5064287;28;20464;-85
2022/04/28 10:04:01;;;;;;;9.57;7.40;;;31.50;53.80;;;;;;5058022;28;20448;-83
2022/04/28 10:06:31;;;;;;;10.80;8.73;;;32.20;53.20;;;;;;5067955;28;20448;-85
2022/04/28 10:09:00;;;;;;;10.63;7.80;;;32.80;53.00;;;;;;5058627;28;20468;-83
2022/04/28 10:11:28;;;;;;;7.93;7.13;;;31.80;52.90;;;;;;5058924;28;20479;-83
2022/04/28 10:13:56;;;;;;;8.83;8.03;;;33.10;52.00;;;;;;5057932;28;20739;-85
2022/04/28 10:16:25;;;;;;;9.00;7.70;;;32.70;50.10;;;;;;5054234;28;20448;-83
2022/04/28 10:18:58;;;;;;;10.00;8.03;;;32.40;51.40;;;;;;5052510;28;20566;-85
2022/04/28 10:21:29;;;;;;;8.13;7.43;;;33.80;49.70;;;;;;5060656;28;20460;-84
2022/04/28 10:32:54;;;;;;;10.80;9.20;;;33.90;46.60;;;;;;5042188;28;20424;-85
2022/04/28 10:35:53;;;;;;;9.87;7.60;;;33.10;45.30;;;;;;5051601;28;20452;-85
2022/04/28 10:38:22;;;;;;;8.50;6.73;;;33.60;47.70;;;;;;5060743;28;20479;-83
2022/04/28 10:40:59;;;;;;;8.90;8.10;;;34.60;46.70;;;;;;5059245;28;20802;-83
2022/04/28 10:43:28;;;;;;;7.70;6.17;;;33.70;48.70;;;;;;5058645;28;20447;-82
2022/04/28 10:45:57;;;;;;;12.37;8.20;;;34.70;46.30;;;;;;5053552;28;20440;-85
2022/04/28 10:48:32;;;;;;;10.37;8.80;;;35.60;45.20;;;;;;5053519;28;20468;-84
2022/04/28 10:51:19;;;;;;;10.10;8.97;;;34.50;46.70;;;;;;5056877;28;20486;-83
2022/04/28 10:54:10;;;;;;;8.97;7.90;;;34.60;46.60;;;;;;5046488;28;20472;-83
2022/04/28 10:56:55;;;;;;;10.27;9.10;;;34.70;44.60;;;;;;5024407;28;20453;-84
2022/04/28 10:59:37;;;;;;;8.37;6.23;;;33.80;44.90;;;;;;5037582;28;20468;-84
2022/04/28 11:02:40;;;;;;;9.80;7.93;;;35.40;46.00;;;;;;5049600;28;20483;-83
2022/04/28 11:05:43;;;;;;;8.77;7.83;;;35.30;43.90;;;;;;5057334;28;20478;-84
2022/04/28 11:08:33;;;;;;;10.73;9.77;;;35.60;46.80;;;;;;5060398;28;20463;-84
2022/04/28 11:11:09;;;;;;;7.37;6.53;;;34.80;45.30;;;;;;5060271;28;20859;-84
2022/04/28 11:13:37;;;;;;;10.70;8.27;;;35.90;43.30;;;;;;5059847;28;20459;-84
2022/04/28 11:16:04;;;;;;;11.33;9.33;;;36.50;43.20;;;;;;5060097;28;20444;-85
2022/04/28 11:18:33;;;;;;;10.10;6.77;;;35.10;41.00;;;;;;5059387;28;20468;-85
2022/04/28 11:21:01;;;;;;;12.40;8.27;;;35.10;42.60;;;;;;5059259;28;20456;-84
2022/04/28 11:23:35;;;;;;;8.30;7.47;;;34.00;42.70;;;;;;5058730;28;20525;-85
2022/04/28 11:26:02;;;;;;;8.80;7.80;;;35.40;43.30;;;;;;5060077;28;20825;-85
2022/04/28 11:28:30;;;;;;;10.07;8.23;;;35.40;40.30;;;;;;5058582;28;20519;-85
2022/04/28 11:30:58;;;;;;;10.40;8.17;;;36.40;42.30;;;;;;5060559;28;20482;-85
2022/04/28 11:33:25;;;;;;;13.70;8.30;;;35.90;42.90;;;;;;5059629;28;20451;-85
2022/04/28 11:35:52;;;;;;;9.60;7.97;;;36.30;41.50;;;;;;5060061;28;20460;-85
2022/04/28 11:38:25;;;;;;;8.80;7.23;;;34.80;41.90;;;;;;5059581;28;20490;-83
2022/04/28 11:41:03;;;;;;;10.80;9.67;;;35.30;41.40;;;;;;5059610;28;20446;-85
2022/04/28 11:43:32;;;;;;;10.03;8.67;;;35.60;40.30;;;;;;5058547;28;20448;-84
2022/04/28 11:46:00;;;;;;;9.73;8.70;;;36.40;41.90;;;;;;5056961;28;20456;-84
2022/04/28 11:48:30;;;;;;;9.80;8.80;;;36.50;43.20;;;;;;5056581;28;20471;-84
2022/04/28 11:51:04;;;;;;;9.80;8.80;;;36.70;41.30;;;;;;5057497;28;20487;-84
2022/04/28 11:53:42;;;;;;;11.17;7.87;;;36.10;42.00;;;;;;5056390;28;20451;-84
2022/04/28 11:56:22;;;;;;;10.57;8.00;;;35.90;41.20;;;;;;5055850;28;20535;-84
2022/04/28 11:58:50;;;;;;;10.33;9.30;;;36.30;41.20;;;;;;5056827;28;20539;-84
2022/04/28 12:01:19;;;;;;;10.37;8.70;;;36.30;41.50;;;;;;5059475;28;20440;-84
2022/04/28 12:03:52;;;;;;;11.10;9.93;;;36.60;42.50;;;;;;5059961;28;20452;-85
2022/04/28 12:06:19;;;;;;;9.20;8.27;;;35.50;40.10;;;;;;5058735;28;20459;-84
2022/04/28 12:08:51;;;;;;;10.77;9.53;;;36.00;42.70;;;;;;5059049;28;20478;-84
2022/04/28 12:14:25;;;;;;;9.77;8.90;;;35.90;41.80;;;;;;5058890;28;20478;-85
2022/04/28 12:19:57;;;;;;;9.60;7.33;;;35.70;41.70;;;;;;4999370;28;20446;-85
2022/04/28 12:22:29;;;;;;;9.60;8.03;;;35.00;40.10;;;;;;4997893;28;20454;-84
2022/04/28 12:25:00;;;;;;;8.73;7.83;;;36.00;39.90;;;;;;5030400;28;20443;-82
2022/04/28 12:27:37;;;;;;;11.00;9.83;;;36.20;39.90;;;;;;5042483;28;20892;-82
2022/04/28 12:30:09;;;;;;;11.50;9.90;;;35.10;39.30;;;;;;5061033;28;20490;-85
2022/04/28 12:32:43;;;;;;;10.27;8.37;;;35.90;41.90;;;;;;5062512;28;20499;-85
2022/04/28 12:35:10;;;;;;;9.57;8.70;;;37.20;39.90;;;;;;5062159;28;20544;-85
2022/04/28 12:37:39;;;;;;;10.33;8.77;;;37.90;41.30;;;;;;5061805;28;20574;-85
2022/04/28 12:40:07;;;;;;;9.40;8.50;;;38.30;39.40;;;;;;5062753;28;20455;-85
2022/04/28 12:42:46;;;;;;;9.87;8.97;;;38.30;39.50;;;;;;5062404;28;20454;-85
2022/04/28 12:45:13;;;;;;;14.93;9.83;;;37.20;40.50;;;;;;5062220;28;20526;-84
2022/04/28 12:47:42;;;;;;;9.70;8.80;;;36.20;39.50;;;;;;5062378;28;20486;-84
2022/04/28 12:50:22;;;;;;;8.23;7.37;;;36.80;40.40;;;;;;5061984;28;20494;-85
2022/04/28 12:52:49;;;;;;;8.90;7.40;;;37.40;42.00;;;;;;5064150;28;20454;-84
2022/04/28 12:55:18;;;;;;;11.33;9.63;;;37.60;42.40;;;;;;5062904;28;20462;-85
2022/04/28 12:57:47;;;;;;;10.67;8.37;;;37.10;38.50;;;;;;5063018;28;20472;-81
2022/04/28 13:00:17;;;;;;;9.97;8.47;;;37.20;42.30;;;;;;5063228;28;20456;-82
2022/04/28 13:02:50;;;;;;;8.30;7.50;;;37.20;40.60;;;;;;5062804;28;20547;-81
2022/04/28 13:05:18;;;;;;;7.23;6.53;;;37.70;40.40;;;;;;5062446;28;21082;-83
2022/04/28 13:07:46;;;;;;;10.50;9.40;;;37.70;39.40;;;;;;5062122;28;20472;-85
2022/04/28 13:10:15;;;;;;;10.40;8.10;;;37.60;39.70;;;;;;5061899;28;20452;-85
2022/04/28 13:12:42;;;;;;;8.80;7.90;;;37.70;39.70;;;;;;5063583;28;20891;-85
2022/04/28 13:15:11;;;;;;;11.37;7.70;;;37.30;38.60;;;;;;5063200;28;20452;-84
2022/04/28 13:17:38;;;;;;;9.77;8.80;;;37.60;41.60;;;;;;5063297;28;20475;-84
2022/04/28 13:20:06;;;;;;;8.30;6.97;;;37.30;38.80;;;;;;5061996;28;20837;-84
2022/04/28 13:22:33;;;;;;;9.30;8.30;;;37.50;39.10;;;;;;5062246;28;20548;-84
2022/04/28 13:25:01;;;;;;;8.47;7.63;;;36.10;39.10;;;;;;5061885;28;20458;-84
2022/04/28 13:27:28;;;;;;;10.40;8.80;;;36.30;41.00;;;;;;5041635;28;20473;-84
2022/04/28 13:29:55;;;;;;;10.33;6.77;;;36.10;38.50;;;;;;5041985;28;20483;-84
2022/04/28 13:32:23;;;;;;;10.43;8.87;;;37.10;38.80;;;;;;5041450;28;20863;-85
2022/04/28 13:34:50;;;;;;;9.17;7.60;;;36.00;37.60;;;;;;5041641;28;20448;-84
2022/04/28 13:37:17;;;;;;;8.77;7.87;;;36.70;38.90;;;;;;5059914;28;20893;-84
2022/04/28 13:39:44;;;;;;;8.80;7.80;;;36.20;39.10;;;;;;5061530;28;20447;-84
2022/04/28 13:42:11;;;;;;;10.47;9.47;;;36.70;39.00;;;;;;5061226;28;20488;-84
2022/04/28 13:44:39;;;;;;;8.50;7.63;;;35.80;37.70;;;;;;5061748;28;20454;-84
2022/04/28 13:47:07;;;;;;;9.10;8.20;;;35.40;39.70;;;;;;5060936;28;20455;-84
2022/04/28 13:49:35;;;;;;;10.43;9.43;;;34.30;40.20;;;;;;5060926;28;20880;-83